Time;durP1;ratioP1;P1;durP2;ratioP2;P2;SDS_P1;SDS_P2;PMS_P1;PMS_P2;Temp;Humidity;BMP_temperature;BMP_pressure;BME280_temperature;BME280_humidity;BME280_pressure;Samples;Min_cycle;Max_cycle;Signal;HPM_P1;HPM_P2
2022/06/17 00:01:23;;;;;;;7.18;2.10;;;;;;;-144.47;42.37;53138.13;4973877;28;20026;-66
2022/06/17 00:03:49;;;;;;;11.18;2.50;;;;;;;-144.47;42.46;53122.25;4973624;28;20030;-66
2022/06/17 00:06:15;;;;;;;11.70;3.33;;;;;;;-144.47;42.52;53146.09;4968086;28;20024;-66
2022/06/17 00:08:43;;;;;;;11.27;4.28;;;;;;;-144.47;42.61;53100.41;4970799;28;20026;-65
2022/06/17 00:11:13;;;;;;;;;;;;;;;-144.47;42.94;53154.03;4974911;28;20026;-65
2022/06/17 00:13:39;;;;;;;10.40;3.70;;;;;;;-144.47;42.79;53118.28;4972604;28;19910;-65
2022/06/17 00:16:09;;;;;;;11.52;3.65;;;;;;;-144.47;42.89;53154.03;4973877;28;20370;-66
2022/06/17 00:18:35;;;;;;;11.18;4.65;;;;;;;-144.47;43.10;53146.09;4972848;28;20069;-67
2022/06/17 00:21:00;;;;;;;9.68;4.07;;;;;;;-144.47;43.30;53108.34;4973808;28;20027;-66
2022/06/17 00:23:27;;;;;;;13.80;4.53;;;;;;;-144.47;43.44;53124.22;4973329;28;20105;-67
2022/06/17 00:25:53;;;;;;;11.32;4.60;;;;;;;-144.47;43.43;53138.13;4971600;28;20381;-68
2022/06/17 00:28:21;;;;;;;12.27;5.88;;;;;;;-144.47;43.76;53136.16;4972377;28;20197;-66
2022/06/17 00:30:47;;;;;;;;;;;;;;;-144.47;43.94;53138.13;4978885;28;20030;-67
2022/06/17 00:33:13;;;;;;;11.27;2.72;;;;;;;-144.47;43.76;53114.31;4976593;28;19917;-66
2022/06/17 00:35:43;;;;;;;13.57;2.50;;;;;;;-144.47;44.11;53160.00;4974753;28;20046;-66
2022/06/17 00:38:19;;;;;;;6.18;2.28;;;;;;;-144.47;44.19;53128.22;4972708;28;20507;-66
2022/06/17 00:40:45;;;;;;;10.85;2.80;;;;;;;-144.47;44.23;53130.19;4974398;28;20642;-65
2022/06/17 00:43:24;;;;;;;5.93;2.38;;;;;;;-144.47;44.43;53179.84;4972800;28;20082;-66
2022/06/17 00:46:22;;;;;;;4.78;2.00;;;;;;;-144.47;44.46;53122.25;4971288;28;20037;-67
2022/06/17 00:49:04;;;;;;;16.00;3.00;;;;;;;-144.47;44.80;53144.09;4972660;28;20545;-64
2022/06/17 00:51:38;;;;;;;8.68;2.15;;;;;;;-144.47;45.55;53161.97;4961715;28;20109;-67
2022/06/17 00:54:30;;;;;;;7.28;2.30;;;;;;;-144.47;45.96;53158.00;4973033;28;20077;-65
2022/06/17 00:56:56;;;;;;;12.73;3.55;;;;;;;-144.47;45.93;53167.94;4973315;28;20542;-65
2022/06/17 00:59:24;;;;;;;8.85;2.80;;;;;;;-144.47;46.22;53165.94;4970766;28;20109;-68
2022/06/17 01:02:00;;;;;;;15.00;2.80;;;;;;;-144.47;46.32;53189.78;4972818;28;20022;-68
2022/06/17 01:04:30;;;;;;;13.32;2.75;;;;;;;-144.47;46.47;53165.94;4973337;28;20027;-66
2022/06/17 01:07:07;;;;;;;9.40;2.88;;;;;;;-144.47;46.61;53156.00;4958745;28;20383;-64
2022/06/17 01:12:24;;;;;;;10.30;3.00;;;;;;;-144.47;46.52;53120.25;4972487;28;20038;-66
2022/06/17 01:14:49;;;;;;;10.60;2.83;;;;;;;-144.47;46.50;53189.78;4967408;28;20035;-65
2022/06/17 01:17:18;;;;;;;15.30;3.17;;;;;;;-144.47;46.43;53160.00;4980528;28;20019;-68
2022/06/17 01:19:50;;;;;;;6.53;3.30;;;;;;;-144.47;46.65;53132.19;4971854;28;20049;-65
2022/06/17 01:22:27;;;;;;;8.48;2.55;;;;;;;-144.47;46.89;53150.06;4972689;28;20041;-64
2022/06/17 01:25:10;;;;;;;5.45;2.70;;;;;;;-144.47;46.98;53181.84;4970895;28;20078;-66
2022/06/17 01:27:45;;;;;;;9.45;3.15;;;;;;;-144.47;47.19;53152.03;4972350;28;20027;-64
2022/06/17 01:30:14;;;;;;;10.55;2.75;;;;;;;-144.47;47.62;53179.84;4969532;28;20037;-66
2022/06/17 01:32:47;;;;;;;10.15;2.83;;;;;;;-144.47;47.32;53165.94;4965865;28;20046;-67
2022/06/17 01:35:13;;;;;;;5.40;2.50;;;;;;;-144.47;47.99;53161.97;4970835;28;20030;-67
2022/06/17 01:37:39;;;;;;;6.45;2.65;;;;;;;-144.47;47.98;53142.09;4972100;28;20029;-67
2022/06/17 01:40:05;;;;;;;8.07;3.05;;;;;;;-144.47;48.06;53148.06;4971679;28;20030;-67
2022/06/17 01:42:33;;;;;;;9.90;2.95;;;;;;;-144.47;48.17;53167.94;4972501;28;20058;-66
2022/06/17 01:44:59;;;;;;;8.98;3.10;;;;;;;-144.47;48.03;53189.78;4971006;28;20114;-65
2022/06/17 01:47:28;;;;;;;9.05;2.40;;;;;;;-144.47;48.26;53163.97;4968825;28;20600;-68
2022/06/17 01:50:18;;;;;;;7.13;2.72;;;;;;;-144.47;48.49;53130.19;4970888;28;20031;-67
2022/06/17 01:52:55;;;;;;;7.40;2.92;;;;;;;-144.47;48.51;53128.22;4969530;28;20105;-67
2022/06/17 01:55:26;;;;;;;7.18;2.63;;;;;;;-144.47;48.71;53163.97;4972138;28;20094;-66
2022/06/17 01:58:06;;;;;;;8.63;3.13;;;;;;;-144.47;48.76;53179.84;4972087;28;20054;-67
2022/06/17 02:00:32;;;;;;;7.72;2.80;;;;;;;-144.47;48.75;53161.97;4971188;28;20034;-67
2022/06/17 02:03:22;;;;;;;17.58;2.45;;;;;;;-144.47;48.91;53167.94;4972286;28;20031;-66
2022/06/17 02:05:52;;;;;;;11.93;2.75;;;;;;;-144.47;48.61;53177.88;4966314;28;20027;-67
2022/06/17 02:08:17;;;;;;;10.82;2.92;;;;;;;-144.47;48.71;53183.81;4970717;28;20031;-68
2022/06/17 02:10:45;;;;;;;10.20;2.60;;;;;;;-144.47;48.66;53185.81;4971076;28;20029;-67
2022/06/17 02:13:14;;;;;;;18.25;2.92;;;;;;;-144.47;49.02;53175.88;4971671;28;20536;-66
2022/06/17 02:15:40;;;;;;;8.32;2.60;;;;;;;-144.47;49.01;53197.72;4971852;28;20065;-64
2022/06/17 02:18:12;;;;;;;7.35;2.72;;;;;;;-144.47;48.97;53209.66;4971687;28;20050;-65
2022/06/17 02:20:38;;;;;;;9.25;3.42;;;;;;;-144.47;49.03;53161.97;4970375;28;20088;-70
2022/06/17 02:23:04;;;;;;;8.90;2.50;;;;;;;-144.47;48.96;53181.84;4971658;28;20096;-67
2022/06/17 02:25:36;;;;;;;6.35;2.72;;;;;;;-144.47;48.86;53201.69;4969758;28;20034;-67
2022/06/17 02:28:02;;;;;;;7.28;3.20;;;;;;;-144.47;48.83;53140.13;4977660;28;20037;-65
2022/06/17 02:30:29;;;;;;;7.40;2.20;;;;;;;-144.47;48.93;53163.97;4972520;28;20031;-67
2022/06/17 02:32:58;;;;;;;10.70;3.42;;;;;;;-144.47;49.17;53169.91;4991145;28;20085;-67
2022/06/17 02:35:47;;;;;;;9.70;2.28;;;;;;;-144.47;49.18;53193.75;4971052;28;20636;-64
2022/06/17 02:38:16;;;;;;;8.80;2.42;;;;;;;-144.47;49.21;53171.91;4970804;28;20624;-67
2022/06/17 02:40:46;;;;;;;4.38;2.30;;;;;;;-144.47;49.06;53179.84;4970631;28;20432;-67
2022/06/17 02:43:15;;;;;;;7.72;2.47;;;;;;;-144.47;49.37;53193.75;4970486;28;20448;-67
2022/06/17 02:45:46;;;;;;;;;;;;;;;-144.47;49.53;53156.00;4968420;28;20030;-67
2022/06/17 02:48:31;;;;;;;10.77;3.88;;;;;;;-144.47;49.60;53179.84;4970347;28;20277;-69
2022/06/17 02:51:00;;;;;;;6.45;2.20;;;;;;;-144.47;49.16;53134.16;4970995;28;20034;-66
2022/06/17 02:53:34;;;;;;;10.90;2.97;;;;;;;-144.47;49.33;53177.88;4971016;28;20489;-67
2022/06/17 02:56:06;;;;;;;8.48;2.90;;;;;;;-144.47;49.28;53193.75;4970878;28;20026;-68
2022/06/17 02:58:46;;;;;;;12.73;2.83;;;;;;;-144.47;49.61;53201.69;4969162;28;20023;-65
2022/06/17 03:01:18;;;;;;;7.40;2.63;;;;;;;-144.47;49.39;53193.75;4971381;28;20026;-67
2022/06/17 03:03:45;;;;;;;8.10;2.88;;;;;;;-144.47;49.69;53197.72;4970906;28;20031;-66
2022/06/17 03:06:27;;;;;;;22.80;3.40;;;;;;;-144.47;49.46;53163.97;4971630;28;20598;-65
2022/06/17 03:08:54;;;;;;;6.97;2.45;;;;;;;-144.47;49.43;53177.88;4967187;28;20039;-66
2022/06/17 03:11:21;;;;;;;8.85;2.97;;;;;;;-144.47;49.75;53185.81;4971391;28;20026;-64
2022/06/17 03:13:53;;;;;;;8.40;2.75;;;;;;;-144.47;49.93;53167.94;4969364;28;20026;-64
2022/06/17 03:16:21;;;;;;;11.13;2.83;;;;;;;-144.47;49.98;53165.94;4978364;28;20033;-65
2022/06/17 03:18:48;;;;;;;14.02;3.25;;;;;;;-144.47;49.95;53191.78;4970042;28;20390;-66
2022/06/17 03:21:20;;;;;;;9.27;2.60;;;;;;;-144.47;50.04;53195.75;4970450;28;20053;-65
2022/06/17 03:24:00;;;;;;;21.70;3.97;;;;;;;-144.47;49.93;53154.03;4970393;28;20408;-66
2022/06/17 03:26:31;;;;;;;11.82;4.22;;;;;;;-144.47;49.92;53197.72;4985600;23;20087;-68
2022/06/17 03:28:58;;;;;;;13.32;4.32;;;;;;;-144.47;49.88;53171.91;4987803;28;20038;-69
2022/06/17 03:31:36;;;;;;;10.77;3.38;;;;;;;-144.47;49.92;53203.69;4994409;28;20435;-69
2022/06/17 03:34:11;;;;;;;10.23;3.80;;;;;;;-144.47;49.88;53160.00;4990606;28;20046;-70
2022/06/17 03:36:53;;;;;;;11.50;3.50;;;;;;;-144.47;50.00;53161.97;4989235;28;20085;-72
2022/06/17 03:39:31;;;;;;;23.13;3.38;;;;;;;-144.47;50.24;53169.91;4987824;28;20085;-70
2022/06/17 03:42:02;;;;;;;13.00;3.30;;;;;;;-144.47;50.30;53169.91;4989363;28;20018;-70
2022/06/17 03:44:34;;;;;;;11.10;3.35;;;;;;;-144.47;50.01;53185.81;4988560;28;20117;-69
2022/06/17 03:47:13;;;;;;;9.35;3.28;;;;;;;-144.47;50.31;53179.84;4983266;28;20030;-70
2022/06/17 03:49:43;;;;;;;;;;;;;;;-144.47;50.45;53195.75;4987602;28;20058;-71
2022/06/17 03:52:30;;;;;;;9.98;3.10;;;;;;;-144.47;50.80;53161.97;4993416;28;19936;-70
2022/06/17 03:54:56;;;;;;;8.90;3.70;;;;;;;-144.47;50.88;53179.84;4978900;28;20034;-70
2022/06/17 03:57:31;;;;;;;10.43;3.50;;;;;;;-144.47;50.82;53183.81;4988937;28;20022;-71
2022/06/17 03:59:58;;;;;;;10.65;3.97;;;;;;;-144.47;50.89;53203.69;4986724;28;20172;-70
2022/06/17 04:02:29;;;;;;;13.88;3.92;;;;;;;-144.47;50.85;53163.97;4989549;28;20090;-70
2022/06/17 04:04:55;;;;;;;8.82;3.75;;;;;;;-144.47;50.90;53233.47;4987076;28;20101;-71
2022/06/17 04:07:21;;;;;;;12.10;3.70;;;;;;;-144.47;50.59;53203.69;4987847;28;20388;-69
2022/06/17 04:09:48;;;;;;;12.45;3.70;;;;;;;-144.47;50.87;53193.75;4978023;28;20558;-70
2022/06/17 04:12:13;;;;;;;9.70;3.75;;;;;;;-144.47;50.73;53160.00;4986433;28;20492;-71
2022/06/17 04:14:58;;;;;;;9.68;3.67;;;;;;;-144.47;50.76;53187.78;4986844;28;20053;-71
2022/06/17 04:17:34;;;;;;;10.45;3.50;;;;;;;-144.47;50.99;53171.91;4991731;28;20495;-75
2022/06/17 04:20:10;;;;;;;22.48;4.55;;;;;;;-144.47;51.42;53179.84;4989676;28;20447;-72
2022/06/17 04:22:36;;;;;;;14.05;4.85;;;;;;;-144.47;51.20;53193.75;4989039;28;20420;-70
2022/06/17 04:25:05;;;;;;;13.82;4.38;;;;;;;-144.47;51.32;53217.59;4988441;28;20365;-71
2022/06/17 04:28:16;;;;;;;14.55;5.00;;;;;;;-144.47;51.34;53156.00;4988816;28;20026;-69
2022/06/17 04:30:21;;;;;;;14.27;4.32;;;;;;;-144.47;51.17;53163.97;4990058;28;20098;-71
2022/06/17 04:32:52;;;;;;;7.82;4.30;;;;;;;-144.47;50.99;53193.75;4991362;28;20045;-71
2022/06/17 04:35:17;;;;;;;11.80;4.45;;;;;;;-144.47;50.82;53211.63;4990715;28;20030;-71
2022/06/17 04:37:46;;;;;;;14.88;4.20;;;;;;;-144.47;50.81;53128.22;4995112;28;20474;-71
2022/06/17 04:40:35;;;;;;;17.00;4.53;;;;;;;-144.47;50.77;53165.94;4997302;28;20109;-69
2022/06/17 04:43:02;;;;;;;;;;;;;;;-144.47;50.62;53183.81;4993445;28;20058;-69
2022/06/17 04:45:29;;;;;;;15.05;4.28;;;;;;;-144.47;50.51;53183.81;4988847;28;19964;-70
2022/06/17 04:47:57;;;;;;;14.98;4.90;;;;;;;-144.47;50.48;53154.03;4991181;28;20044;-69
2022/06/17 04:50:26;;;;;;;33.73;5.50;;;;;;;-144.47;50.64;53185.81;4994546;28;20121;-69
2022/06/17 04:52:54;;;;;;;15.82;4.90;;;;;;;-144.47;50.33;53201.69;4991186;28;20279;-69
2022/06/17 04:55:19;;;;;;;16.33;5.60;;;;;;;-144.47;50.07;53171.91;4991767;28;20476;-69
2022/06/17 04:57:47;;;;;;;17.38;5.57;;;;;;;-144.47;49.98;53193.75;4989387;28;20124;-70
2022/06/17 05:00:22;;;;;;;21.17;5.18;;;;;;;-144.47;49.93;53193.75;4989347;28;21042;-70
2022/06/17 05:02:48;;;;;;;23.42;5.15;;;;;;;-144.47;49.97;53171.91;4991269;28;20042;-71
2022/06/17 05:05:21;;;;;;;17.35;5.68;;;;;;;-144.47;49.74;53154.03;4995312;28;20038;-68
2022/06/17 05:07:51;;;;;;;14.05;5.28;;;;;;;-144.47;49.90;53161.97;4991457;28;20030;-68
2022/06/17 05:10:24;;;;;;;13.55;6.35;;;;;;;-144.47;49.90;53169.91;4986375;28;20032;-69
2022/06/17 05:12:57;;;;;;;21.33;6.05;;;;;;;-144.47;49.99;53185.81;4988463;28;20040;-70
2022/06/17 05:15:24;;;;;;;16.02;5.18;;;;;;;-144.47;49.88;53148.06;4992273;28;20434;-69
2022/06/17 05:17:49;;;;;;;14.48;5.75;;;;;;;-144.47;49.85;53187.78;4994660;28;20050;-72
2022/06/17 05:20:20;;;;;;;14.45;5.95;;;;;;;-144.47;49.77;53173.88;4988280;28;20105;-70
2022/06/17 05:23:05;;;;;;;18.02;5.72;;;;;;;-144.47;49.53;53181.84;4991610;28;20042;-68
2022/06/17 05:25:39;;;;;;;17.13;7.18;;;;;;;-144.47;49.56;53126.22;4991660;28;20018;-69
2022/06/17 05:28:07;;;;;;;11.25;5.53;;;;;;;-144.47;49.55;53187.78;4988511;28;20033;-68
2022/06/17 05:30:39;;;;;;;22.23;5.65;;;;;;;-144.47;49.48;53187.78;4991394;28;20040;-70
2022/06/17 05:33:05;;;;;;;15.80;5.80;;;;;;;-144.47;49.53;53169.91;4994665;28;20117;-71
2022/06/17 05:35:31;;;;;;;20.92;5.90;;;;;;;-144.47;49.26;53124.22;5001086;28;20165;-69
2022/06/17 05:37:57;;;;;;;21.98;7.10;;;;;;;-144.47;49.27;53165.94;4998266;28;20018;-72
2022/06/17 05:40:22;;;;;;;30.40;5.47;;;;;;;-144.47;49.06;53144.09;4989052;28;20033;-69
2022/06/17 05:42:49;;;;;;;19.50;5.70;;;;;;;-144.47;49.03;53197.72;4991299;28;20041;-70
2022/06/17 05:45:27;;;;;;;20.20;4.90;;;;;;;-144.47;48.92;53173.88;4990272;28;20029;-70
2022/06/17 05:47:52;;;;;;;23.42;5.35;;;;;;;-144.47;48.89;53199.72;4990810;28;20022;-69
2022/06/17 05:50:20;;;;;;;20.65;6.20;;;;;;;-144.47;48.88;53165.94;4989033;28;20042;-68
2022/06/17 05:53:07;;;;;;;21.63;6.13;;;;;;;-144.47;48.58;53140.13;4990728;28;20041;-70
2022/06/17 05:55:34;;;;;;;16.88;5.75;;;;;;;-144.47;48.68;53179.84;4990742;28;20030;-70
2022/06/17 05:58:00;;;;;;;14.05;4.63;;;;;;;-144.47;48.51;53175.88;4989273;28;20396;-68
2022/06/17 06:00:27;;;;;;;23.08;7.00;;;;;;;-144.47;48.66;53175.88;4989150;28;20022;-70
2022/06/17 06:02:57;;;;;;;16.23;5.60;;;;;;;-144.47;48.83;53185.81;4990905;28;20029;-69
2022/06/17 06:05:25;;;;;;;18.85;5.60;;;;;;;-144.47;48.75;53165.94;4990366;28;20080;-68
2022/06/17 06:07:51;;;;;;;14.30;5.90;;;;;;;-144.47;48.49;53156.00;4983601;28;20496;-72
2022/06/17 06:10:17;;;;;;;17.60;5.97;;;;;;;-144.47;48.44;53138.13;4990201;28;20042;-68
2022/06/17 06:12:57;;;;;;;17.63;5.00;;;;;;;-144.47;48.39;53138.13;4990572;28;20033;-70
2022/06/17 06:15:43;;;;;;;13.40;4.80;;;;;;;-144.47;48.20;53161.97;4989642;28;20029;-70
2022/06/17 06:18:11;;;;;;;17.90;6.05;;;;;;;-144.47;48.36;53146.09;4990641;28;20065;-69
2022/06/17 06:20:36;;;;;;;12.55;5.68;;;;;;;-144.47;48.21;53179.84;4989923;28;20022;-70
2022/06/17 06:23:03;;;;;;;15.75;5.22;;;;;;;-144.47;47.88;53160.00;4988681;28;20525;-69
2022/06/17 06:25:28;;;;;;;15.70;5.20;;;;;;;-144.47;48.09;53154.03;4988756;28;20033;-69
2022/06/17 06:27:54;;;;;;;22.02;5.90;;;;;;;-144.47;48.09;53146.09;4992117;28;20392;-69
2022/06/17 06:30:19;;;;;;;34.60;6.85;;;;;;;-144.47;48.04;53146.09;4989552;28;20058;-70
2022/06/17 06:32:49;;;;;;;15.13;4.82;;;;;;;-144.47;47.84;53152.03;4991735;28;20487;-70
2022/06/17 06:35:16;;;;;;;27.20;5.75;;;;;;;-144.47;47.54;53175.88;4980892;28;20509;-69
2022/06/17 06:37:42;;;;;;;17.25;5.03;;;;;;;-144.47;47.24;53160.00;4995119;28;20046;-70
2022/06/17 06:40:08;;;;;;;26.73;5.63;;;;;;;-144.47;47.22;53185.81;4991570;28;20026;-70
2022/06/17 06:42:33;;;;;;;12.68;4.70;;;;;;;-144.47;47.06;53163.97;4990591;28;20026;-70
2022/06/17 06:44:59;;;;;;;16.75;4.85;;;;;;;-144.47;46.93;53140.13;4989673;28;20648;-70
2022/06/17 06:47:24;;;;;;;22.13;5.10;;;;;;;-144.47;46.71;53130.19;4989714;28;20026;-71
2022/06/17 06:49:49;;;;;;;19.05;4.82;;;;;;;-144.47;47.08;53154.03;4986677;28;20041;-70
2022/06/17 06:52:16;;;;;;;16.67;4.75;;;;;;;-144.47;46.20;53152.03;4989968;28;20026;-71
2022/06/17 06:54:42;;;;;;;10.85;4.25;;;;;;;-144.47;46.15;53163.97;4990023;28;20492;-69
2022/06/17 06:57:10;;;;;;;13.75;4.70;;;;;;;-144.47;45.90;53144.09;4989397;28;20026;-71
2022/06/17 06:59:36;;;;;;;11.63;3.75;;;;;;;-144.47;44.96;53136.16;4987923;28;20026;-70
2022/06/17 07:02:01;;;;;;;8.82;3.45;;;;;;;-144.47;44.65;53116.28;4989383;28;20026;-68
2022/06/17 07:04:27;;;;;;;12.65;4.25;;;;;;;-144.47;44.86;53098.41;4989197;28;20157;-71
2022/06/17 07:06:52;;;;;;;15.93;3.67;;;;;;;-144.47;44.15;53122.25;4988661;28;20514;-69
2022/06/17 07:09:17;;;;;;;10.77;4.03;;;;;;;-144.47;44.24;53158.00;4989081;28;20608;-69
2022/06/17 07:11:43;;;;;;;20.02;4.20;;;;;;;-144.47;43.45;53116.28;4990256;28;20033;-70
2022/06/17 07:14:08;;;;;;;12.15;3.67;;;;;;;-144.47;43.65;53156.00;4989785;28;20026;-69
2022/06/17 07:16:33;;;;;;;7.68;3.83;;;;;;;-144.47;43.96;53134.16;4995766;28;20463;-69
2022/06/17 07:18:59;;;;;;;25.35;4.30;;;;;;;-144.47;43.84;53142.09;4989118;28;20049;-70
2022/06/17 07:21:24;;;;;;;15.93;3.45;;;;;;;-144.47;43.07;53116.28;4989816;28;20041;-69
2022/06/17 07:23:50;;;;;;;19.00;4.25;;;;;;;-144.47;43.19;53152.03;4989453;28;20105;-70
2022/06/17 07:26:21;;;;;;;13.20;3.60;;;;;;;-144.47;42.92;53150.06;4990317;28;20026;-70
2022/06/17 07:28:49;;;;;;;7.55;3.20;;;;;;;-144.47;42.56;53120.25;4988771;28;20221;-70
2022/06/17 07:31:15;;;;;;;12.65;3.70;;;;;;;-144.47;42.96;53136.16;4990318;28;20026;-69
2022/06/17 07:33:40;;;;;;;14.38;3.70;;;;;;;-144.47;42.70;53126.22;4989326;28;20535;-69
2022/06/17 07:36:10;;;;;;;9.50;3.58;;;;;;;-144.47;43.00;53114.31;4982233;28;20113;-70
2022/06/17 07:41:24;;;;;;;9.68;3.10;;;;;;;-144.47;42.20;53144.09;4990006;28;20550;-69
2022/06/17 07:43:50;;;;;;;6.53;2.67;;;;;;;-144.47;41.53;53128.22;4988714;28;20041;-69
2022/06/17 07:46:15;;;;;;;8.30;2.72;;;;;;;-144.47;41.65;53138.13;4989779;28;20121;-69
2022/06/17 07:48:42;;;;;;;12.23;2.85;;;;;;;-144.47;41.44;53104.38;4986904;28;20088;-69
2022/06/17 07:51:09;;;;;;;9.52;2.40;;;;;;;-144.47;41.34;53102.38;4987218;28;20030;-69
2022/06/17 07:53:35;;;;;;;9.32;2.60;;;;;;;-144.47;40.73;53084.50;4980361;28;20049;-69
2022/06/17 07:56:02;;;;;;;14.63;3.53;;;;;;;-144.47;41.23;53112.31;4987214;28;20104;-70
2022/06/17 07:58:28;;;;;;;12.40;3.85;;;;;;;-144.47;41.38;53108.34;4993836;28;20120;-68
2022/06/17 08:00:55;;;;;;;23.42;3.33;;;;;;;-144.47;41.50;53104.38;4993366;28;20491;-70
2022/06/17 08:03:21;;;;;;;8.70;3.03;;;;;;;-144.47;41.87;53106.34;4993158;28;20034;-69
2022/06/17 08:05:50;;;;;;;10.98;3.60;;;;;;;-144.47;41.05;53108.34;4982288;28;20167;-69
2022/06/17 08:08:21;;;;;;;10.82;2.85;;;;;;;-144.47;40.46;53086.50;4988220;28;20472;-70
2022/06/17 08:10:52;;;;;;;11.10;2.78;;;;;;;-144.47;40.28;53104.38;4985827;28;20030;-68
2022/06/17 08:13:18;;;;;;;11.95;3.05;;;;;;;-144.47;40.03;53120.25;4990406;28;20050;-70
2022/06/17 08:15:44;;;;;;;19.70;3.20;;;;;;;-144.47;40.18;53088.47;4997811;28;20041;-69
2022/06/17 08:18:10;;;;;;;6.72;2.45;;;;;;;-144.47;40.04;53094.44;4988595;28;20014;-69
2022/06/17 08:20:36;;;;;;;10.23;3.05;;;;;;;-144.47;40.33;53100.41;4991023;28;20037;-68
2022/06/17 08:23:03;;;;;;;10.27;3.28;;;;;;;-144.47;40.22;53130.19;4986425;28;20030;-68
2022/06/17 08:25:30;;;;;;;25.02;4.25;;;;;;;-144.47;40.33;53122.25;4990459;28;20029;-70
2022/06/17 08:27:58;;;;;;;11.38;2.80;;;;;;;-144.47;40.32;53070.59;4984393;28;20079;-71
2022/06/17 08:30:29;;;;;;;12.20;3.85;;;;;;;-144.47;39.67;53126.22;4985777;28;20034;-70
2022/06/17 08:32:56;;;;;;;12.18;2.80;;;;;;;-144.47;39.40;53090.47;4984323;28;20514;-70
2022/06/17 08:35:43;;;;;;;13.70;3.13;;;;;;;-144.47;39.50;53112.31;4985570;28;20519;-69
2022/06/17 08:38:26;;;;;;;21.63;3.70;;;;;;;-144.47;39.06;53070.59;4986596;28;20126;-70
2022/06/17 08:40:54;;;;;;;14.40;3.35;;;;;;;-144.47;39.58;53114.31;4983265;28;20026;-71
2022/06/17 08:43:29;;;;;;;19.65;5.68;;;;;;;-144.47;39.54;53142.09;4983379;28;20070;-70
2022/06/17 08:46:30;;;;;;;17.55;3.78;;;;;;;-144.47;39.65;53092.44;4984990;28;20035;-67
2022/06/17 08:49:20;;;;;;;13.95;3.38;;;;;;;-144.47;39.52;53102.38;4978369;28;20027;-70
2022/06/17 08:51:57;;;;;;;14.40;3.83;;;;;;;-144.47;39.13;53074.56;4987066;28;20033;-68
2022/06/17 08:54:44;;;;;;;12.75;4.20;;;;;;;-144.47;38.85;53128.22;4989192;28;21423;-68
2022/06/17 08:57:16;;;;;;;12.85;3.40;;;;;;;-144.47;39.03;53122.25;4997811;28;20036;-69
2022/06/17 09:00:05;;;;;;;17.70;3.78;;;;;;;-144.47;38.74;53130.19;4989633;28;20080;-72
2022/06/17 09:02:33;;;;;;;10.43;3.60;;;;;;;-144.47;38.83;53122.25;4986273;28;20037;-69
2022/06/17 09:05:29;;;;;;;16.45;3.95;;;;;;;-144.47;39.13;53098.41;4987476;28;20030;-69
2022/06/17 09:08:08;;;;;;;11.82;3.35;;;;;;;-144.47;38.74;53066.63;4989248;28;20794;-69
2022/06/17 09:10:50;;;;;;;13.50;4.55;;;;;;;-144.47;38.41;53076.56;4990044;28;20106;-69
2022/06/17 09:13:59;;;;;;;23.88;3.80;;;;;;;-144.47;38.20;53080.53;4993369;28;20030;-70
2022/06/17 09:16:25;;;;;;;10.50;3.80;;;;;;;-144.47;38.42;53110.31;4988252;28;20155;-69
2022/06/17 09:18:59;;;;;;;10.45;3.45;;;;;;;-144.47;38.27;53110.31;4990123;28;20531;-71
2022/06/17 09:21:34;;;;;;;22.30;3.88;;;;;;;-144.47;38.04;53114.31;4992877;28;20334;-68
2022/06/17 09:24:05;;;;;;;23.10;3.95;;;;;;;-144.47;37.45;53080.53;4992134;28;20042;-70
2022/06/17 09:26:48;;;;;;;8.18;3.05;;;;;;;-144.47;37.30;53098.41;4995879;28;20049;-71
2022/06/17 09:29:21;;;;;;;8.30;3.15;;;;;;;-144.47;36.93;53094.44;5016995;22;20054;-70
2022/06/17 09:31:52;;;;;;;15.65;4.07;;;;;;;-144.47;36.77;53096.41;5004617;28;20026;-69
2022/06/17 09:34:39;;;;;;;8.50;2.85;;;;;;;-144.47;36.83;53046.75;4999156;28;20037;-70
2022/06/17 09:37:16;;;;;;;12.88;3.95;;;;;;;-144.47;37.14;53086.50;4998888;28;20173;-69
2022/06/17 09:39:52;;;;;;;13.27;3.92;;;;;;;-144.47;37.06;53102.38;4983054;28;20030;-71
2022/06/17 09:42:26;;;;;;;11.85;3.22;;;;;;;-144.47;36.16;53074.56;4983814;28;20053;-67
2022/06/17 09:44:55;;;;;;;12.63;3.25;;;;;;;-144.47;36.18;53090.47;4982090;28;20148;-70
2022/06/17 09:47:24;;;;;;;;;;;;;;;-144.47;36.36;53094.44;4984114;28;20049;-69
2022/06/17 09:50:15;;;;;;;14.52;3.63;;;;;;;-144.47;36.54;53086.50;4983564;28;19972;-67
2022/06/17 09:52:54;;;;;;;10.65;3.58;;;;;;;-144.47;36.51;53112.31;4984674;28;20499;-68
2022/06/17 09:55:34;;;;;;;11.10;3.10;;;;;;;-144.47;36.33;53086.50;4976396;28;20153;-70
2022/06/17 09:58:09;;;;;;;13.60;2.90;;;;;;;-144.47;36.01;53080.53;4986003;28;20030;-69
2022/06/17 10:00:43;;;;;;;18.40;3.30;;;;;;;-144.47;35.97;53070.59;4983619;28;20022;-68
2022/06/17 10:03:11;;;;;;;9.35;3.00;;;;;;;-144.47;35.78;53058.69;4974036;28;20026;-70
2022/06/17 10:05:56;;;;;;;10.60;3.22;;;;;;;-144.47;35.68;53062.66;4981093;28;20030;-69
2022/06/17 10:08:40;;;;;;;12.63;3.83;;;;;;;-144.47;35.47;53078.53;4983610;28;20451;-68
2022/06/17 10:11:30;;;;;;;18.23;3.45;;;;;;;-144.47;35.39;53080.53;4977400;28;20464;-67
2022/06/17 10:14:04;;;;;;;11.30;3.45;;;;;;;-144.47;35.41;53094.44;4980149;28;20030;-67
2022/06/17 10:19:37;;;;;;;13.60;3.38;;;;;;;-144.47;35.33;53066.63;4978001;28;20134;-68
2022/06/17 10:22:05;;;;;;;16.25;3.30;;;;;;;-144.47;35.19;53084.50;4980047;28;20461;-67
2022/06/17 10:24:57;;;;;;;19.17;3.47;;;;;;;-144.47;35.21;53038.81;4985017;28;20026;-69
2022/06/17 10:27:37;;;;;;;11.15;3.58;;;;;;;-144.47;34.95;53066.63;4973879;28;20257;-69
2022/06/17 10:30:12;;;;;;;9.00;3.03;;;;;;;-144.47;34.88;53036.84;4988565;28;20038;-70
2022/06/17 10:32:42;;;;;;;11.77;2.92;;;;;;;-144.47;34.87;53011.00;4986101;28;20062;-70
2022/06/17 10:35:18;;;;;;;14.70;3.30;;;;;;;-144.47;34.76;53048.75;4984287;28;20054;-67
2022/06/17 10:37:44;;;;;;;9.05;2.53;;;;;;;-144.47;34.39;53040.81;4989110;28;20288;-69
2022/06/17 10:40:15;;;;;;;12.27;2.92;;;;;;;-144.47;33.50;53054.72;4989176;28;20514;-70
2022/06/17 10:42:43;;;;;;;15.65;3.20;;;;;;;-144.47;34.37;53066.63;4990378;28;20519;-70
2022/06/17 10:45:14;;;;;;;12.10;3.28;;;;;;;-144.47;33.20;53054.72;4989905;28;20030;-69
2022/06/17 10:47:50;;;;;;;18.92;3.13;;;;;;;-144.47;33.54;53038.81;4990667;28;20096;-71
2022/06/17 10:50:22;;;;;;;11.85;2.80;;;;;;;-144.47;33.30;53104.38;4990019;28;20074;-69
2022/06/17 10:52:57;;;;;;;9.63;3.10;;;;;;;-144.47;33.60;53082.53;4991190;28;20026;-70
2022/06/17 10:55:33;;;;;;;17.15;3.03;;;;;;;-144.47;33.58;53034.84;4992832;28;20030;-71
2022/06/17 10:58:10;;;;;;;10.25;3.13;;;;;;;-144.47;33.27;53056.69;4989762;28;20444;-71
2022/06/17 11:01:05;;;;;;;8.03;2.60;;;;;;;-144.47;33.27;53044.78;4989764;28;20160;-68
2022/06/17 11:03:33;;;;;;;8.48;2.70;;;;;;;-144.47;33.07;53042.78;4990657;28;20484;-68
2022/06/17 11:06:09;;;;;;;13.43;3.47;;;;;;;-144.47;32.83;53066.63;4990225;28;20022;-69
2022/06/17 11:08:42;;;;;;;8.55;2.72;;;;;;;-144.47;32.78;53068.63;4989408;28;20026;-67
2022/06/17 11:14:00;;;;;;;9.30;2.70;;;;;;;-144.47;33.12;53032.88;4977171;28;20145;-66
2022/06/17 11:16:27;;;;;;;10.27;3.00;;;;;;;-144.47;32.75;53062.66;4982278;28;20599;-71
2022/06/17 11:19:05;;;;;;;18.85;3.25;;;;;;;-144.47;32.53;53020.94;4988538;28;20030;-69
2022/06/17 11:21:34;;;;;;;;;;;;;;;-144.47;32.64;53064.66;4989928;28;20030;-69
2022/06/17 11:24:01;;;;;;;16.85;4.05;;;;;;;-144.47;32.66;53088.47;4989818;28;20017;-70
2022/06/17 11:26:30;;;;;;;7.00;2.63;;;;;;;-144.47;32.34;53072.59;4988997;28;20037;-67
2022/06/17 11:29:00;;;;;;;8.35;2.97;;;;;;;-144.47;31.94;53074.56;5002232;28;20056;-67
2022/06/17 11:31:25;;;;;;;14.27;2.78;;;;;;;-144.47;32.08;53040.81;4988755;28;20026;-66
2022/06/17 11:33:54;;;;;;;15.57;2.75;;;;;;;-144.47;31.92;53076.56;5000828;28;20088;-70
2022/06/17 11:36:34;;;;;;;5.03;2.47;;;;;;;-144.47;31.43;53030.88;4986555;28;20026;-69
2022/06/17 11:39:31;;;;;;;6.72;2.28;;;;;;;-144.47;31.11;53009.03;4986431;28;20121;-67
2022/06/17 11:41:57;;;;;;;12.25;2.45;;;;;;;-144.47;31.23;53052.72;4996645;28;20043;-67
2022/06/17 11:44:24;;;;;;;13.82;3.42;;;;;;;-144.47;31.41;52985.19;4991962;28;20101;-68
2022/06/17 11:46:55;;;;;;;13.25;2.35;;;;;;;-144.47;31.69;53036.84;4993002;28;20023;-70